Latest Weather Observations for Moss Vale

IDN60801

Issued at 6:23 pm EST Saturday 9 May 2026 (issued every 10 minutes, with the page automatically refreshed every 10 minutes)

About weather observations | Map of weather stations | Latest weather observations for NSW | Other Formats
Station Details ID: 068239 Name: MOSS VALE AWS Lat: -34.53 Lon: 150.42 Height: 678.4 m
Data from the previous 72 hours. | See also: Recent months at Moss Vale
Date/Time
EST
Temp
°C
App
Temp
°C
Dew
Point
°C
Rel
Hum
%
Delta-T
°C
Wind Press
QNH
hPa
Press
MSL
hPa
Rain since
9am
mm
Dir  Spd
km/h
Gust
km/h
Spd
kts
Gust
kts
09/06:00pm 9.8 7.5 5.8 76 1.9 ESE 7 11 4 6 1025.6 1025.5 0.0
09/05:30pm 11.9 10.1 7.8 76 2.1 SE 7 9 4 5 1025.2 1025.1 0.0
09/05:00pm 13.3 11.1 8.0 70 2.7 SE 9 9 5 5 1024.9 1024.8 0.0
09/04:30pm 14.3 12.1 8.0 66 3.3 SSE 9 11 5 6 1024.7 1024.6 0.0
09/04:00pm 15.0 12.8 7.8 62 3.7 SE 9 13 5 7 1024.5 1024.3 0.0
09/03:30pm 16.0 14.1 7.5 57 4.4 SSE 7 11 4 6 1024.3 1024.1 0.0
09/03:00pm 16.6 13.7 8.3 58 4.4 SW 13 17 7 9 1024.2 1024.0 0.0
09/02:30pm 16.9 14.4 8.1 56 4.6 WSW 11 17 6 9 1024.2 1024.0 0.0
09/02:00pm 15.8 12.7 7.1 56 4.4 SW 13 22 7 12 1024.0 1023.9 0.0
09/01:30pm 15.6 13.2 7.1 57 4.3 WSW 9 15 5 8 1024.4 1024.2 0.0
09/01:00pm 16.7 14.9 8.1 57 4.5 NW 7 13 4 7 1024.6 1024.5 0.0
09/12:30pm 14.5 11.9 6.3 58 4.1 SSE 9 15 5 8 1025.0 1024.9 0.0
09/12:00pm 14.0 10.8 6.8 62 3.6 SSW 13 22 7 12 1025.3 1025.2 0.0
09/11:30am 14.3 12.0 7.6 64 3.4 SW 9 15 5 8 1025.6 1025.5 0.0
09/11:00am 13.6 10.5 7.4 66 3.1 S 13 19 7 10 1025.9 1025.8 0.0
09/10:30am 12.6 9.3 6.2 65 3.1 SSE 13 19 7 10 1026.0 1025.9 0.0
09/10:00am 11.7 8.1 6.8 72 2.4 SSW 15 22 8 12 1025.9 1025.8 0.0
09/09:30am 11.4 8.8 7.7 78 1.9 WNW 11 15 6 8 1026.0 1025.9 0.0
09/09:00am 10.0 7.9 8.4 90 0.8 NNW 9 15 5 8 1025.9 1025.8 0.0
09/08:30am 7.6 4.9 7.3 98 0.1 WSW 11 15 6 8 1025.5 1025.4 0.0
09/08:00am 5.6 3.2 5.3 98 0.1 WSW 7 11 4 6 1025.3 1025.2 0.0
09/07:48am 4.2 1.5 3.9 98 0.1 WSW 7 9 4 5 1025.3 1025.2 0.0
09/07:33am 3.6 0.1 3.3 98 0.1 W 11 15 6 8 1025.2 1025.1 0.0
09/07:30am 3.3 0.1 2.9 97 0.2 W 9 13 5 7 1025.2 1025.1 0.0
09/07:20am 2.7 -0.6 2.3 97 0.2 W 9 13 5 7 1025.0 1024.9 0.0
09/07:12am 3.4 -0.2 3.1 98 0.1 W 11 15 6 8 1024.9 1024.8 0.0
09/07:00am 2.3 -1.1 1.9 97 0.2 W 9 13 5 7 1024.9 1024.8 0.0
09/06:30am 1.9 -1.6 1.5 97 0.2 W 9 13 5 7 1024.4 1024.2 0.0
09/06:00am 3.0 0.1 2.6 97 0.2 W 7 11 4 6 1024.2 1024.0 0.0
09/05:30am 3.4 -0.2 3.0 97 0.2 W 11 11 6 6 1023.8 1023.7 0.0
09/05:00am 2.4 -0.6 1.8 96 0.2 WNW 7 9 4 5 1023.6 1023.5 0.0
09/04:40am 4.7 3.4 4.3 97 0.2 CALM 0 6 0 3 1023.4 1023.3 0.0
09/04:30am 5.1 2.8 4.7 97 0.2 WNW 6 9 3 5 1023.5 1023.4 0.0
09/04:01am 3.9 1.3 3.3 96 0.3 W 6 7 3 4 1023.1 1022.9 0.0
09/04:00am 3.7 1.1 3.1 96 0.3 W 6 7 3 4 1023.1 1022.9 0.0
09/03:37am 4.8 1.8 4.2 96 0.3 W 9 9 5 5 1023.2 1023.0 0.0
09/03:36am 4.8 1.8 4.2 96 0.3 W 9 9 5 5 1023.2 1023.0 0.0
09/03:30am 5.5 3.0 4.9 96 0.3 W 7 9 4 5 1023.2 1023.0 0.0
09/03:21am 5.1 2.7 4.5 96 0.3 WNW 6 7 3 4 1023.3 1023.2 0.0
09/03:15am 5.0 2.4 4.3 95 0.3 W 7 9 4 5 1023.3 1023.2 0.0
09/03:05am 5.8 3.4 5.2 96 0.3 W 7 9 4 5 1023.3 1023.2 0.0
09/03:00am 5.9 3.5 5.3 96 0.3 W 7 7 4 4 1023.3 1023.2 0.0
09/02:46am 5.9 3.5 5.2 95 0.3 W 7 9 4 5 1023.3 1023.2 0.0
09/02:30am 6.0 3.2 5.1 94 0.4 W 9 11 5 6 1023.3 1023.2 0.0
09/02:00am 6.7 4.0 5.8 94 0.4 WNW 9 11 5 6 1023.2 1023.0 0.0
09/01:30am 6.4 4.2 5.2 92 0.5 NW 6 7 3 4 1023.2 1023.0 0.0
09/01:00am 7.0 4.3 5.6 91 0.6 W 9 11 5 6 1023.3 1023.2 0.0
09/12:30am 7.4 5.1 5.9 90 0.7 W 7 9 4 5 1023.2 1023.0 0.0
09/12:00am 7.4 4.4 5.9 90 0.7 WNW 11 13 6 7 1023.0 1022.8 0.0
 
Date/Time
EST
Temp
°C
App
Temp
°C
Dew
Point
°C
Rel
Hum
%
Delta-T
°C
Wind Press
QNH
hPa
Press
MSL
hPa
Rain since
9am
mm
Dir  Spd
km/h
Gust
km/h
Spd
kts
Gust
kts
08/11:30pm 7.7 5.1 6.0 89 0.8 W 9 13 5 7 1022.9 1022.7 0.0
08/11:00pm 8.1 5.1 6.1 87 0.9 WSW 11 17 6 9 1022.9 1022.7 0.0
08/10:30pm 8.5 5.1 6.1 85 1.1 WSW 13 19 7 10 1022.9 1022.7 0.0
08/10:00pm 8.8 4.7 6.1 83 1.3 SW 17 24 9 13 1022.9 1022.7 0.0
08/09:30pm 9.2 5.0 5.9 80 1.6 WSW 17 20 9 11 1022.8 1022.6 0.0
08/09:00pm 9.4 5.2 5.9 79 1.7 SW 17 24 9 13 1022.6 1022.4 0.0
08/08:30pm 9.2 5.4 5.8 79 1.6 WSW 15 22 8 12 1022.3 1022.2 0.0
08/08:00pm 9.3 5.5 5.7 78 1.7 SW 15 24 8 13 1022.1 1022.0 0.0
08/07:30pm 9.4 4.6 5.6 77 1.8 WSW 20 33 11 18 1021.8 1021.6 0.0
08/07:00pm 9.3 4.7 5.5 77 1.8 WSW 19 26 10 14 1021.5 1021.3 0.0
08/06:30pm 9.0 5.1 5.4 78 1.7 WSW 15 24 8 13 1021.1 1020.9 0.0
08/06:00pm 9.5 4.7 5.5 76 1.9 WSW 20 33 11 18 1020.4 1020.2 0.0
08/05:30pm 9.9 3.6 5.5 74 2.1 WSW 28 46 15 25 1019.6 1019.4 0.0
08/05:00pm 10.1 3.7 5.3 72 2.3 WSW 28 43 15 23 1019.0 1018.8 0.0
08/04:45pm 10.3 3.2 5.3 71 2.4 W 32 50 17 27 1018.7 1018.5 0.0
08/04:30pm 10.8 1.9 5.3 69 2.6 W 41 57 22 31 1018.4 1018.2 0.0
08/04:00pm 11.7 4.0 5.3 65 3.1 W 35 50 19 27 1018.3 1018.1 0.0
08/03:30pm 12.2 4.6 5.6 64 3.2 W 35 54 19 29 1018.0 1017.7 0.0
08/03:16pm 12.1 4.0 5.3 63 3.3 W 37 61 20 33 1017.6 1017.4 0.0
08/03:00pm 12.0 3.1 5.0 62 3.3 WSW 41 56 22 30 1017.6 1017.4 0.0
08/02:40pm 12.8 5.1 5.2 60 3.7 WSW 35 56 19 30 1017.6 1017.4 0.0
08/02:30pm 12.6 4.0 4.8 59 3.7 WSW 39 56 21 30 1017.3 1017.1 0.0
08/02:17pm 12.4 3.8 4.4 58 3.8 WSW 39 59 21 32 1017.1 1016.9 0.0
08/02:00pm 12.9 5.7 5.1 59 3.8 WSW 32 46 17 25 1017.1 1016.9 0.0
08/01:30pm 12.9 5.7 4.8 58 3.9 WSW 32 56 17 30 1017.0 1016.8 0.0
08/01:06pm 13.0 4.4 4.7 57 4.0 W 39 57 21 31 1016.8 1016.5 0.0
08/01:00pm 12.9 3.9 4.3 56 4.1 WSW 41 56 22 30 1016.8 1016.5 0.0
08/12:42pm 12.4 3.0 4.4 58 3.8 WSW 43 61 23 33 1017.0 1016.8 0.0
08/12:30pm 12.4 2.9 4.1 57 3.9 WSW 43 56 23 30 1017.1 1016.9 0.0
08/12:00pm 11.8 2.3 4.1 59 3.6 WSW 43 65 23 35 1017.3 1017.1 0.0
08/11:51am 12.2 4.4 4.7 60 3.6 WSW 35 54 19 29 1017.6 1017.4 0.0
08/11:30am 11.4 2.8 4.4 62 3.3 WSW 39 56 21 30 1017.7 1017.5 0.0
08/11:00am 10.6 0.6 4.1 64 3.0 WSW 46 65 25 35 1017.5 1017.3 0.0
08/10:33am 10.1 0.5 3.6 64 3.0 W 43 61 23 33 1017.9 1017.6 0.0
08/10:30am 10.2 0.7 3.7 64 3.0 W 43 57 23 31 1018.0 1017.7 0.0
08/10:20am 10.2 1.5 3.9 65 2.9 WSW 39 61 21 33 1018.1 1017.8 0.0
08/10:00am 9.9 1.2 4.1 67 2.7 WSW 39 52 21 28 1018.2 1017.9 0.0
08/09:30am 9.4 1.5 4.2 70 2.4 W 35 56 19 30 1018.2 1017.9 0.0
08/09:05am 8.6 -0.2 3.6 71 2.2 W 39 57 21 31 1018.0 1017.7 0.0
08/09:00am 8.4 -1.1 3.7 72 2.1 W 43 59 23 32 1017.9 1017.6 0.0
08/08:30am 7.8 -0.6 3.5 74 1.9 W 37 59 20 32 1018.0 1017.7 0.0
08/08:08am 7.2 -0.9 3.3 76 1.7 W 35 57 19 31 1017.5 1017.3 0.0
08/08:00am 6.9 -0.6 3.2 77 1.6 W 32 41 17 22 1017.5 1017.3 0.0
08/07:34am 6.2 -1.4 2.8 79 1.5 W 32 50 17 27 1017.0 1016.8 0.0
08/07:30am 6.1 -1.5 2.9 80 1.4 W 32 46 17 25 1017.1 1016.9 0.0
08/07:00am 5.5 -1.0 2.5 81 1.3 W 26 37 14 20 1017.2 1017.0 0.0
08/06:30am 5.2 -1.4 2.2 81 1.3 W 26 39 14 21 1017.3 1017.1 0.0
08/06:00am 5.4 -2.9 2.2 80 1.3 W 35 48 19 26 1017.0 1016.8 0.0
08/05:56am 5.3 -2.6 2.1 80 1.3 W 33 46 18 25 1017.0 1016.8 0.0
08/05:30am 4.9 0.0 1.7 80 1.3 W 17 28 9 15 1017.5 1017.3 0.0
08/05:00am 4.9 -2.2 1.6 79 1.4 W 28 37 15 20 1017.1 1016.9 0.0
08/04:30am 5.0 -3.4 1.5 78 1.4 W 35 48 19 26 1016.8 1016.5 0.0
08/04:00am 5.0 -3.5 1.1 76 1.6 W 35 56 19 30 1017.2 1017.0 0.0
08/03:55am 5.0 -2.9 1.1 76 1.6 W 32 56 17 30 1017.2 1017.0 0.0
08/03:30am 4.7 -1.7 0.8 76 1.6 W 24 39 13 21 1017.5 1017.3 0.0
08/03:00am 4.9 -2.6 0.9 75 1.6 W 30 43 16 23 1017.4 1017.2 0.0
08/02:50am 4.8 -2.4 0.8 75 1.6 W 28 46 15 25 1017.6 1017.4 0.0
08/02:30am 4.9 -3.0 0.9 75 1.6 W 32 43 17 23 1017.7 1017.5 0.0
08/02:00am 4.5 -2.3 0.8 77 1.5 WSW 26 35 14 19 1018.0 1017.7 0.0
08/01:30am 4.5 -3.5 0.6 76 1.6 W 32 44 17 24 1018.0 1017.7 0.0
08/01:00am 4.5 -3.1 0.5 75 1.6 WSW 30 41 16 22 1018.3 1018.1 0.0
08/12:30am 4.3 -3.9 0.3 75 1.6 WSW 33 54 18 29 1018.3 1018.1 0.0
08/12:01am 4.0 -4.1 -0.2 74 1.6 WSW 32 50 17 27 1018.6 1018.4 0.0
08/12:00am 4.0 -4.3 -0.2 74 1.6 WSW 33 50 18 27 1018.6 1018.4 0.0
 
Date/Time
EST
Temp
°C
App
Temp
°C
Dew
Point
°C
Rel
Hum
%
Delta-T
°C
Wind Press
QNH
hPa
Press
MSL
hPa
Rain since
9am
mm
Dir  Spd
km/h
Gust
km/h
Spd
kts
Gust
kts
07/11:30pm 4.0 -4.1 -0.6 72 1.8 WSW 32 52 17 28 1018.4 1018.2 0.0
07/11:24pm 4.1 -3.2 -0.3 73 1.7 WSW 28 52 15 28 1018.4 1018.2 0.0
07/11:00pm 4.1 -2.9 -0.7 71 1.9 WSW 26 41 14 22 1018.6 1018.4 0.0
07/10:30pm 4.2 -2.5 -1.0 69 2.0 WSW 24 35 13 19 1018.6 1018.4 0.0
07/10:00pm 4.3 -3.1 -0.7 70 1.9 WSW 28 39 15 21 1018.6 1018.4 0.0
07/09:30pm 4.4 -3.7 -0.6 70 1.9 WSW 32 46 17 25 1018.7 1018.5 0.0
07/09:01pm 4.5 -3.3 -0.7 69 2.0 WSW 30 48 16 26 1018.4 1018.2 0.0
07/09:00pm 4.5 -3.7 -0.7 69 2.0 WSW 32 48 17 26 1018.4 1018.2 0.0
07/08:30pm 4.8 -3.9 -0.8 67 2.2 WSW 35 50 19 27 1018.2 1017.9 0.0
07/08:22pm 4.8 -3.4 -0.8 67 2.2 WSW 32 50 17 27 1018.3 1018.1 0.0
07/08:00pm 4.9 -3.9 -0.9 66 2.3 WSW 35 48 19 26 1018.4 1018.2 0.0
07/07:32pm 5.2 -3.6 -1.0 64 2.4 WSW 35 54 19 29 1018.4 1018.2 0.0
07/07:30pm 5.1 -3.3 -0.9 65 2.3 WSW 33 46 18 25 1018.5 1018.3 0.0
07/07:00pm 5.2 -3.0 -1.0 64 2.4 WSW 32 52 17 28 1018.2 1017.9 0.0
07/06:51pm 5.4 -3.0 -1.1 63 2.5 W 33 52 18 28 1018.0 1017.7 0.0
07/06:30pm 5.4 -3.4 -1.3 62 2.6 W 35 50 19 27 1017.7 1017.5 0.0
07/06:02pm 5.7 -2.7 -1.2 61 2.7 W 33 52 18 28 1017.2 1017.0 0.0
07/06:00pm 5.8 -3.0 -1.3 60 2.8 W 35 52 19 28 1017.1 1016.9 0.0
07/05:30pm 6.2 -2.6 -1.4 58 3.0 W 35 54 19 29 1016.7 1016.4 0.0
07/05:00pm 6.7 -1.7 -1.4 56 3.2 W 33 52 18 28 1016.4 1016.1 0.0
07/04:43pm 7.3 -1.0 -1.6 53 3.5 W 32 50 17 27 1016.0 1015.8 0.0
07/04:30pm 7.6 -0.8 -1.1 54 3.5 W 33 46 18 25 1016.1 1015.9 0.0
07/04:07pm 8.0 -1.2 -1.2 52 3.7 W 37 56 20 30 1015.6 1015.3 0.0
07/04:00pm 7.8 -1.4 -1.4 52 3.6 W 37 54 20 29 1015.6 1015.3 0.0
07/03:30pm 8.3 -1.3 -1.2 51 3.8 W 39 57 21 31 1015.4 1015.1 0.0
07/03:06pm 8.7 0.3 -1.4 49 4.0 WSW 33 63 18 34 1015.2 1014.9 0.0
07/03:00pm 8.5 -0.2 -0.8 52 3.8 WSW 35 50 19 27 1015.2 1014.9 0.0
07/02:30pm 8.8 -1.2 -1.6 48 4.1 WSW 41 63 22 34 1014.6 1014.4 0.0
07/02:00pm 8.9 -1.5 -1.5 48 4.2 W 43 61 23 33 1014.3 1014.0 0.0
07/01:30pm 9.6 1.3 -0.6 49 4.2 WSW 33 52 18 28 1014.8 1014.5 0.0
07/01:01pm 8.7 -1.0 -2.3 46 4.3 WSW 39 61 21 33 1014.0 1013.7 0.0
07/01:00pm 9.2 -0.3 -0.9 49 4.1 WSW 39 54 21 29 1014.1 1013.8 0.0
07/12:44pm 9.2 -1.3 -1.2 48 4.2 WSW 44 63 24 34 1014.2 1013.9 0.0
07/12:30pm 8.6 -1.8 -1.8 48 4.1 WSW 43 59 23 32 1014.2 1013.9 0.0
07/12:00pm 9.4 0.2 -1.0 48 4.2 WSW 37 61 20 33 1014.6 1014.4 0.0
07/11:39am 8.3 -1.8 -2.6 46 4.2 WSW 41 61 22 33 1014.5 1014.3 0.0
07/11:30am 8.8 -0.9 -2.2 46 4.3 WSW 39 56 21 30 1014.6 1014.4 0.0
07/11:00am 8.7 -1.1 -3.2 43 4.6 WSW 39 61 21 33 1014.8 1014.5 0.0
07/10:40am 8.3 -2.3 -3.5 43 4.5 SW 43 67 23 36 1014.8 1014.5 0.0
07/10:35am 8.6 -1.9 -2.6 45 4.4 WSW 43 59 23 32 1014.9 1014.6 0.0
07/10:30am 8.7 -1.9 -3.5 42 4.6 W 43 56 23 30 1014.8 1014.5 0.0
07/10:00am 8.6 -1.3 -3.9 41 4.7 WSW 39 59 21 32 1014.4 1014.2 0.0
07/09:30am 7.9 -0.7 0.4 59 3.1 WSW 35 54 19 29 1014.5 1014.3 0.0
07/09:00am 7.9 -0.3 2.8 70 2.2 WSW 35 63 19 34 1014.3 1014.0 0.0
07/08:45am 8.0 -0.8 3.8 75 1.9 WSW 39 59 21 32 1014.2 1013.9 0.0
07/08:37am 8.2 1.5 5.5 83 1.3 WSW 30 54 16 29 1013.9 1013.6 0.0
07/08:30am 8.2 3.6 6.5 89 0.8 WSW 20 32 11 17 1013.8 1013.5 0.0
07/08:06am 8.4 4.3 6.4 87 1.0 W 17 22 9 12 1013.6 1013.3 0.0
07/08:00am 8.4 4.0 6.4 87 1.0 W 19 26 10 14 1013.5 1013.2 0.0
07/07:30am 8.8 2.5 5.5 80 1.6 W 28 41 15 22 1013.4 1013.1 0.0
07/07:00am 8.6 2.6 5.4 80 1.5 W 26 39 14 21 1013.3 1013.0 0.0
07/06:30am 7.8 0.9 4.4 79 1.5 W 30 41 16 22 1013.0 1012.7 0.0
07/06:02am 7.7 0.7 4.3 79 1.5 W 30 52 16 28 1012.8 1012.5 0.0
07/06:00am 7.6 1.0 4.0 78 1.6 W 28 39 15 21 1012.9 1012.6 0.0
07/05:30am 7.3 2.3 3.5 77 1.7 W 19 26 10 14 1013.5 1013.2 0.0
07/05:00am 7.4 1.4 3.5 76 1.7 W 24 35 13 19 1013.5 1013.2 0.0
07/04:30am 7.2 2.1 3.3 76 1.7 WNW 19 32 10 17 1013.8 1013.5 0.0
07/04:00am 7.1 0.7 3.3 77 1.7 W 26 39 14 21 1013.9 1013.6 0.0
07/03:43am 7.1 0.3 3.3 77 1.7 W 28 46 15 25 1013.9 1013.6 0.0
07/03:30am 6.8 0.8 3.2 78 1.6 W 24 37 13 20 1014.1 1013.8 0.0
07/03:00am 7.3 -1.9 3.4 76 1.7 W 41 52 22 28 1014.0 1013.7 0.0
07/02:30am 7.3 -1.8 3.9 79 1.5 W 41 54 22 29 1014.3 1014.0 0.0
07/02:00am 7.7 -0.9 4.5 80 1.5 W 39 54 21 29 1014.4 1014.2 0.0
07/01:30am 7.9 1.0 4.7 80 1.5 W 30 43 16 23 1014.8 1014.5 0.0
07/01:00am 8.0 3.8 5.5 84 1.2 WNW 17 33 9 18 1015.4 1015.1 0.0
07/12:30am 8.1 1.7 5.4 83 1.3 W 28 39 15 21 1015.6 1015.3 0.0
07/12:00am 8.4 2.5 5.7 83 1.3 W 26 37 14 20 1015.8 1015.6 0.0
 
Date/Time
EST
Temp
°C
App
Temp
°C
Dew
Point
°C
Rel
Hum
%
Delta-T
°C
Wind Press
QNH
hPa
Press
MSL
hPa
Rain since
9am
mm
Dir  Spd
km/h
Gust
km/h
Spd
kts
Gust
kts
06/11:30pm 8.7 2.8 6.0 83 1.3 W 26 35 14 19 1015.9 1015.7 0.0
06/11:00pm 8.9 4.2 6.0 82 1.4 W 20 32 11 17 1016.3 1016.0 0.0
06/10:30pm 9.2 5.8 5.9 80 1.6 WNW 13 20 7 11 1016.6 1016.3 0.0
06/10:00pm 9.6 5.8 6.0 78 1.7 WNW 15 24 8 13 1017.0 1016.8 0.0
06/09:30pm 10.0 5.5 6.0 76 1.9 W 19 24 10 13 1017.2 1017.0 0.0
06/09:00pm 10.5 6.7 5.9 73 2.2 W 15 20 8 11 1017.4 1017.2 0.0
06/08:30pm 11.4 7.2 5.7 68 2.7 WNW 17 24 9 13 1017.5 1017.3 0.0
06/08:00pm 11.9 8.9 6.0 67 2.9 WNW 11 15 6 8 1017.6 1017.4 0.0
06/07:30pm 12.4 9.5 6.5 67 2.9 WNW 11 17 6 9 1017.7 1017.5 0.0
06/07:00pm 14.1 10.7 7.6 65 3.3 NW 15 19 8 10 1017.9 1017.6 0.0
06/06:30pm 13.9 10.5 9.1 73 2.5 WSW 17 35 9 19 1017.7 1017.5 0.0

Other formats

Comma delimited format used in spreadsheet applications
http://www.bom.gov.au/fwo/IDN60801/IDN60801.94746.axf

JavaScript Object Notation format (JSON) in row-major order
http://www.bom.gov.au/fwo/IDN60801/IDN60801.94746.json

Data quality

Most of these data are generated automatically and are frequently updated. Quality checks on data are not normally performed. It is possible for incorrect values to appear. Refer to information at About Latest Weather Observations and please check the disclaimer before using these data.